For water level readings from Victoria harbour, visit our Tides page.

DISCLAIMER: Although GVHA takes care to produce accurate readings from Ogden Point, the weather information on this site is raw data fed directly from sensors. It does not go through the same quality control processes used by professional weather services, and should not be relied on as a sole source of weather information for Victoria harbour.

In-depth weather values from Victoria Harbour can be found on the Environment Canada website.

Location: Ogden Point Breakwater

Current time: Nov 23, 2020 8:05 PM GMT | Nov 23, 2020 12:05 PM

Last Hour Last 3 Hours Last 6 Hours Last 12 Hours
Time Peak Wind Speed Avg Speed Avg Direction Avg Air Temp Avg Dew Point Avg Humidity
Nov 23, 2020 12:00 PM 8 knots 6.8 knots 216° True 7.4° C / 44.8° F 5° C / 40° F 84.7%
Nov 23, 2020 11:50 AM 9.6 knots 7.2 knots 220° True 7.2° C / 44.4° F 5° C / 40° F 86%
Nov 23, 2020 11:40 AM 9.6 knots 8.1 knots 207° True 7.2° C / 44.4° F 5° C / 40° F 85.4%
Nov 23, 2020 11:30 AM 6.6 knots 3.5 knots 204° True 7.3° C / 44.6° F 5° C / 40° F 85.7%
Nov 23, 2020 11:20 AM 4.6 knots 2.8 knots 201° True 7.2° C / 44.4° F 5° C / 40° F 85.5%
Nov 23, 2020 11:10 AM 3.1 knots 2.3 knots 231° True 7.2° C / 44.4° F 5° C / 40° F 85.9%
Nov 23, 2020 11:00 AM 3.8 knots 3 knots 238° True 7° C / 44° F 5° C / 40° F 87.1%
Nov 23, 2020 10:50 AM 4.1 knots 3.2 knots 252° True 6.8° C / 43.6° F 5° C / 40° F 87.7%
Nov 23, 2020 10:40 AM 4.5 knots 3.6 knots 258° True 6.7° C / 43.4° F 5° C / 40° F 88.6%
Nov 23, 2020 10:30 AM 6 knots 4.1 knots 272° True 6.6° C / 43.2° F 5° C / 40° F 89.3%
Nov 23, 2020 10:20 AM 5.6 knots 4.8 knots 284° True 6.5° C / 43° F 5° C / 40° F 90.2%
Nov 23, 2020 10:10 AM 6.5 knots 5 knots 278° True 6.6° C / 43.2° F 5.2° C / 40.4° F 90.6%
Nov 23, 2020 10:00 AM 5.1 knots 3.9 knots 287° True 6.6° C / 43.2° F 5.2° C / 40.4° F 90.8%
Nov 23, 2020 09:50 AM 4.7 knots 3.8 knots 312° True 6.4° C / 42.8° F 5° C / 40° F 91%
Nov 23, 2020 09:40 AM 4 knots 3.4 knots 320° True 6.1° C / 42.2° F 4.9° C / 39.8° F 91.8%
Nov 23, 2020 09:30 AM 4.2 knots 3.2 knots 344° True 6.1° C / 42.2° F 4.9° C / 39.8° F 91.8%
Nov 23, 2020 09:20 AM 5.4 knots 3.4 knots 355° True 6.1° C / 42.2° F 4.9° C / 39.8° F 92.1%
Nov 23, 2020 09:10 AM 5.9 knots 4.3 knots 336° True 6° C / 42° F 4.8° C / 39.6° F 92.4%
Nov 23, 2020 09:00 AM 6.2 knots 4.6 knots 332° True 5.9° C / 41.8° F 4.9° C / 39.8° F 93.2%
Nov 23, 2020 08:50 AM 5.7 knots 4.3 knots 309° True 5.8° C / 41.6° F 4.9° C / 39.8° F 93.8%
Nov 23, 2020 08:40 AM 7.4 knots 5.1 knots 305° True 5.7° C / 41.4° F 4.8° C / 39.6° F 93.7%
Nov 23, 2020 08:30 AM 6.3 knots 5.5 knots 325° True 5.7° C / 41.4° F 4.7° C / 39.4° F 93.4%
Nov 23, 2020 08:20 AM 6.1 knots 5 knots 337° True 5.7° C / 41.4° F 4.8° C / 39.6° F 93.9%
Nov 23, 2020 08:10 AM 7.3 knots 5.9 knots 313° True 5.7° C / 41.4° F 4.9° C / 39.8° F 94.6%
Nov 23, 2020 08:00 AM 7.9 knots 6.4 knots 297° True 5.7° C / 41.4° F 4.9° C / 39.8° F 94.9%
Nov 23, 2020 07:50 AM 7.2 knots 6.1 knots 287° True 5.7° C / 41.4° F 4.9° C / 39.8° F 94.9%
Nov 23, 2020 07:40 AM 7.3 knots 5.8 knots 285° True 5.7° C / 41.4° F 4.9° C / 39.8° F 94.8%
Nov 23, 2020 07:30 AM 6.7 knots 5.7 knots 299° True 5.7° C / 41.4° F 4.9° C / 39.8° F 94.7%
Nov 23, 2020 07:20 AM 6.8 knots 4.9 knots 314° True 5.8° C / 41.6° F 4.9° C / 39.8° F 94.1%
Nov 23, 2020 07:10 AM 5.1 knots 4.2 knots 341° True 5.8° C / 41.6° F 4.9° C / 39.8° F 93.5%
Nov 23, 2020 07:00 AM 5.6 knots 4.8 knots 309° True 5.9° C / 41.8° F 4.8° C / 39.6° F 92.7%
Nov 23, 2020 06:50 AM 5.6 knots 3.6 knots 296° True 6° C / 42° F 4.7° C / 39.4° F 91.2%
Nov 23, 2020 06:40 AM 2.3 knots 1.6 knots 10° True 6° C / 42° F 4.6° C / 39.2° F 90.4%
Nov 23, 2020 06:30 AM 3.9 knots 2.5 knots 30° True 6.1° C / 42.2° F 4.5° C / 39° F 89.9%
Nov 23, 2020 06:20 AM 6 knots 4.4 knots 59° True 6.1° C / 42.2° F 4.5° C / 39° F 89.5%
Nov 23, 2020 06:10 AM 7.5 knots 5.4 knots 94° True 6.1° C / 42.2° F 4.6° C / 39.2° F 90.1%
Nov 23, 2020 06:00 AM 8.1 knots 5.7 knots 82° True 6° C / 42° F 4.6° C / 39.2° F 90.9%
Nov 23, 2020 05:50 AM 8.5 knots 6.3 knots 68° True 5.9° C / 41.8° F 4.6° C / 39.2° F 91.5%
Nov 23, 2020 05:40 AM 8.5 knots 6 knots 67° True 5.9° C / 41.8° F 4.7° C / 39.4° F 91.7%
Nov 23, 2020 05:30 AM 10 knots 6.6 knots 65° True 6° C / 42° F 4.7° C / 39.4° F 91.3%
Nov 23, 2020 05:20 AM 14 knots 9 knots 70° True 6° C / 42° F 4.8° C / 39.6° F 91.8%
Nov 23, 2020 05:10 AM 10.4 knots 7.7 knots 73° True 6° C / 42° F 4.9° C / 39.8° F 92.7%
Nov 23, 2020 05:00 AM 9.3 knots 6.5 knots 64° True 6° C / 42° F 5.1° C / 40.2° F 93.4%
Nov 23, 2020 04:50 AM 9.2 knots 6.1 knots 60° True 6° C / 42° F 5.1° C / 40.2° F 93.9%
Nov 23, 2020 04:40 AM 8 knots 5.4 knots 55° True 6.1° C / 42.2° F 5.3° C / 40.6° F 94.6%
Nov 23, 2020 04:30 AM 6.9 knots 3.8 knots 50° True 6.2° C / 42.4° F 5.5° C / 41° F 95%
Nov 23, 2020 04:20 AM 5 knots 3.8 knots 28° True 6.2° C / 42.4° F 5.5° C / 41° F 94.9%
Nov 23, 2020 04:10 AM 6.2 knots 3.5 knots 25° True 6.2° C / 42.4° F 5.4° C / 40.8° F 94.6%
Nov 23, 2020 04:00 AM 6.1 knots 3.5 knots 35° True 6.2° C / 42.4° F 5.4° C / 40.8° F 94.4%
Nov 23, 2020 03:50 AM 7.6 knots 5.8 knots 41° True 6.3° C / 42.6° F 5.4° C / 40.8° F 94.1%
Nov 23, 2020 03:40 AM 6.2 knots 4.3 knots 38° True 6.3° C / 42.6° F 5.4° C / 40.8° F 93.8%
Nov 23, 2020 03:30 AM 4.7 knots 3.1 knots 41° True 6.4° C / 42.8° F 5.3° C / 40.6° F 93.1%
Nov 23, 2020 03:20 AM 4.4 knots 3 knots 27° True 6.4° C / 42.8° F 5.3° C / 40.6° F 92.4%
Nov 23, 2020 03:10 AM 6.7 knots 4.5 knots 42° True 6.5° C / 43° F 5.2° C / 40.4° F 91.5%
Nov 23, 2020 03:00 AM 7.1 knots 5.4 knots 59° True 6.6° C / 43.2° F 5.1° C / 40.2° F 90.4%
Nov 23, 2020 02:50 AM 7.6 knots 5.5 knots 54° True 6.6° C / 43.2° F 5.1° C / 40.2° F 89.8%
Nov 23, 2020 02:40 AM 6.8 knots 5.2 knots 65° True 6.7° C / 43.4° F 5.1° C / 40.2° F 89.8%
Nov 23, 2020 02:30 AM 8.4 knots 6.5 knots 70° True 6.7° C / 43.4° F 5.2° C / 40.4° F 90.1%
Nov 23, 2020 02:20 AM 9.7 knots 7.2 knots 71° True 6.8° C / 43.6° F 5.3° C / 40.6° F 89.9%
Nov 23, 2020 02:10 AM 10 knots 6.9 knots 73° True 7° C / 44° F 5.2° C / 40.4° F 88.8%
Nov 23, 2020 02:00 AM 9.4 knots 6.8 knots 81° True 6.9° C / 43.8° F 5.3° C / 40.6° F 89.1%
Nov 23, 2020 01:50 AM 10.2 knots 6.9 knots 84° True 7° C / 44° F 5.5° C / 41° F 90.2%
Nov 23, 2020 01:40 AM 8.9 knots 6.3 knots 80° True 6.9° C / 43.8° F 5.5° C / 41° F 90.9%
Nov 23, 2020 01:30 AM 7.9 knots 5.7 knots 79° True 6.7° C / 43.4° F 5.5° C / 41° F 92.4%
Nov 23, 2020 01:20 AM 8.3 knots 5.7 knots 94° True 6.1° C / 42.2° F 5.4° C / 40.8° F 95.1%
Nov 23, 2020 01:10 AM 4.3 knots 2.6 knots 359° True 5.1° C / 40.2° F 4.6° C / 39.2° F 96%
Nov 23, 2020 01:00 AM 3.7 knots 3 knots 2° True 5° C / 40° F 4.4° C / 38.8° F 96%
Nov 23, 2020 12:50 AM 4.3 knots 3.1 knots 11° True 4.9° C / 39.8° F 4.4° C / 38.8° F 96%
Nov 23, 2020 12:40 AM 6.4 knots 5.2 knots 9° True 5° C / 40° F 4.4° C / 38.8° F 95.6%
Nov 23, 2020 12:30 AM 5.7 knots 3.7 knots 348° True 5.3° C / 40.6° F 4.7° C / 39.4° F 95.7%
Nov 23, 2020 12:20 AM 4.1 knots 3.3 knots 330° True 5.1° C / 40.2° F 4.5° C / 39° F 96%
Nov 23, 2020 12:10 AM 4.6 knots 3.5 knots 352° True 5° C / 40° F 4.4° C / 38.8° F 95.9%